Time;durP1;ratioP1;P1;durP2;ratioP2;P2;SDS_P1;SDS_P2;PMS_P1;PMS_P2;Temp;Humidity;BMP_temperature;BMP_pressure;BME280_temperature;BME280_humidity;BME280_pressure;Samples;Min_cycle;Max_cycle;Signal;HPM_P1;HPM_P2
2023/12/08 00:01:15;;;;;;;12.20;11.80;;;-0.90;99.90;;;;;;5103618;28;20263;-81
2023/12/08 00:03:43;;;;;;;12.03;11.63;;;-0.90;99.90;;;;;;5103219;28;20225;-81
2023/12/08 00:06:12;;;;;;;12.37;11.97;;;-1.00;99.90;;;;;;5103107;28;20278;-81
2023/12/08 00:08:41;;;;;;;12.30;11.90;;;-0.90;99.90;;;;;;5103931;28;20284;-83
2023/12/08 00:11:09;;;;;;;12.00;11.60;;;-1.00;99.90;;;;;;5103507;28;20236;-83
2023/12/08 00:13:36;;;;;;;11.63;11.23;;;-1.00;99.90;;;;;;5104600;28;20237;-83
2023/12/08 00:16:04;;;;;;;12.10;11.70;;;-1.00;99.90;;;;;;5107725;28;20255;-83
2023/12/08 00:18:31;;;;;;;11.97;11.57;;;-1.00;99.90;;;;;;5107369;28;20221;-83
2023/12/08 00:20:59;;;;;;;11.83;11.43;;;-0.90;99.90;;;;;;5105682;28;20232;-83
2023/12/08 00:23:27;;;;;;;11.90;11.50;;;-0.90;99.90;;;;;;5105652;28;20268;-83
2023/12/08 00:25:55;;;;;;;11.77;11.37;;;-0.90;99.90;;;;;;5108581;28;20294;-83
2023/12/08 00:28:22;;;;;;;11.67;11.27;;;-0.80;99.90;;;;;;5105780;28;20291;-82
2023/12/08 00:30:50;;;;;;;11.30;10.90;;;-0.80;99.90;;;;;;5105425;28;20243;-82
2023/12/08 00:33:17;;;;;;;11.60;11.20;;;-0.80;99.90;;;;;;5105086;28;20233;-83
2023/12/08 00:35:44;;;;;;;11.43;11.03;;;-0.70;99.90;;;;;;5104533;28;20233;-82
2023/12/08 00:38:12;;;;;;;11.53;11.13;;;-0.80;99.90;;;;;;5104181;28;20221;-82
2023/12/08 00:40:41;;;;;;;11.60;11.20;;;-0.70;99.90;;;;;;5104629;28;20278;-82
2023/12/08 00:43:08;;;;;;;11.63;11.23;;;-0.70;99.90;;;;;;5104452;28;20233;-82
2023/12/08 00:45:36;;;;;;;11.53;11.13;;;-0.70;99.90;;;;;;5103631;28;20233;-82
2023/12/08 00:48:03;;;;;;;11.37;10.97;;;-0.60;99.90;;;;;;5104278;28;20222;-82
2023/12/08 00:50:30;;;;;;;11.60;11.20;;;-0.60;99.90;;;;;;5104252;28;20276;-82
2023/12/08 00:52:58;;;;;;;11.40;11.00;;;-0.60;99.90;;;;;;5104329;28;20229;-82
2023/12/08 00:55:25;;;;;;;11.33;10.93;;;-0.70;99.90;;;;;;5103606;28;20233;-82
2023/12/08 00:57:54;;;;;;;10.87;10.53;;;-0.80;99.90;;;;;;5103598;28;20241;-82
2023/12/08 01:00:23;;;;;;;11.50;11.10;;;-0.90;99.90;;;;;;5103184;28;20233;-82
2023/12/08 01:02:51;;;;;;;11.47;11.07;;;-0.90;99.90;;;;;;5103970;28;20263;-82
2023/12/08 01:05:18;;;;;;;11.60;11.20;;;-0.90;99.90;;;;;;5103020;28;20229;-82
2023/12/08 01:07:46;;;;;;;11.50;11.10;;;-0.90;99.90;;;;;;5103924;28;20225;-82
2023/12/08 01:10:13;;;;;;;11.33;10.93;;;-0.90;99.90;;;;;;5104169;28;20232;-82
2023/12/08 01:12:41;;;;;;;11.20;10.80;;;-0.90;99.90;;;;;;5104317;28;20305;-82
2023/12/08 01:15:11;;;;;;;11.50;11.10;;;-0.80;99.90;;;;;;5103697;28;20232;-83
2023/12/08 01:17:38;;;;;;;11.23;10.83;;;-0.80;99.90;;;;;;5109185;28;20217;-80
2023/12/08 01:20:07;;;;;;;11.43;11.03;;;-0.80;99.90;;;;;;5116815;27;20294;-82
2023/12/08 01:22:34;;;;;;;11.33;10.93;;;-0.80;99.90;;;;;;5103586;28;20237;-82
2023/12/08 01:25:02;;;;;;;11.40;11.00;;;-0.80;99.90;;;;;;5105969;28;20220;-82
2023/12/08 01:27:30;;;;;;;11.60;11.20;;;-0.80;99.90;;;;;;5103630;28;20236;-82
2023/12/08 01:29:57;;;;;;;11.37;10.97;;;-0.80;99.90;;;;;;5102783;28;20229;-82
2023/12/08 01:32:26;;;;;;;11.40;11.00;;;-0.80;99.90;;;;;;5102932;28;20256;-82
2023/12/08 01:34:53;;;;;;;10.90;10.60;;;-0.80;99.90;;;;;;5103229;28;20311;-82
2023/12/08 01:37:20;;;;;;;11.33;10.93;;;-0.70;99.90;;;;;;5105790;28;20231;-82
2023/12/08 01:39:48;;;;;;;11.60;11.20;;;-0.70;99.90;;;;;;5120666;27;20213;-80
2023/12/08 01:42:15;;;;;;;11.20;10.80;;;-0.80;99.90;;;;;;5110203;28;20233;-82
2023/12/08 01:44:43;;;;;;;11.50;11.10;;;-0.80;99.90;;;;;;5105684;28;20255;-82
2023/12/08 01:47:11;;;;;;;11.33;10.93;;;-0.70;99.90;;;;;;5108402;28;20225;-82
2023/12/08 01:49:41;;;;;;;11.30;10.90;;;-0.70;99.90;;;;;;5106585;28;20237;-82
2023/12/08 01:52:09;;;;;;;11.23;10.83;;;-0.70;99.90;;;;;;5105932;28;20236;-82
2023/12/08 01:54:37;;;;;;;11.43;11.03;;;-0.60;99.90;;;;;;5106617;28;20289;-82
2023/12/08 01:57:05;;;;;;;11.60;11.20;;;-0.70;99.90;;;;;;5120311;27;20247;-82
2023/12/08 01:59:33;;;;;;;11.60;11.20;;;-0.70;99.90;;;;;;5114976;28;20221;-81
2023/12/08 02:02:00;;;;;;;11.40;11.00;;;-0.70;99.90;;;;;;5121718;27;20243;-81
2023/12/08 02:04:28;;;;;;;11.33;10.93;;;-0.80;99.90;;;;;;5122202;27;20229;-81
2023/12/08 02:06:58;;;;;;;11.40;11.00;;;-0.70;99.90;;;;;;5118480;28;20222;-82
2023/12/08 02:09:25;;;;;;;11.30;10.90;;;-0.70;99.90;;;;;;5107865;28;20233;-82
2023/12/08 02:11:53;;;;;;;10.93;10.63;;;-0.70;99.90;;;;;;5106949;28;20252;-82
2023/12/08 02:14:20;;;;;;;11.37;10.97;;;-0.60;99.90;;;;;;5116196;28;20212;-81
2023/12/08 02:16:55;;;;;;;11.13;10.80;;;-0.60;99.90;;;;;;5110609;28;20232;-82
2023/12/08 02:19:23;;;;;;;11.10;10.77;;;-0.60;99.90;;;;;;5106673;28;20236;-82
2023/12/08 02:21:51;;;;;;;11.00;10.70;;;-0.60;99.90;;;;;;5105674;28;20241;-82
2023/12/08 02:24:20;;;;;;;10.87;10.57;;;-0.60;99.90;;;;;;5105815;28;20240;-82
2023/12/08 02:26:48;;;;;;;11.03;10.73;;;-0.60;99.90;;;;;;5105698;28;20267;-82
2023/12/08 02:29:16;;;;;;;10.83;10.53;;;-0.50;99.90;;;;;;5107806;28;20240;-82
2023/12/08 02:31:47;;;;;;;10.60;10.30;;;-0.50;99.90;;;;;;5105613;28;20328;-81
2023/12/08 02:34:17;;;;;;;10.80;10.50;;;-0.40;99.90;;;;;;5106121;28;20283;-82
2023/12/08 02:36:46;;;;;;;10.90;10.60;;;-0.40;99.90;;;;;;5105293;28;20233;-82
2023/12/08 02:39:17;;;;;;;10.60;10.30;;;-0.40;99.90;;;;;;5105963;28;20282;-82
2023/12/08 02:41:46;;;;;;;10.97;10.67;;;-0.40;99.90;;;;;;5104926;28;20236;-82
2023/12/08 02:44:12;;;;;;;10.93;10.63;;;-0.40;99.90;;;;;;5105732;28;20224;-82
2023/12/08 02:46:41;;;;;;;10.70;10.40;;;-0.40;99.90;;;;;;5104929;28;20221;-82
2023/12/08 02:49:08;;;;;;;10.87;10.57;;;-0.30;99.90;;;;;;5108754;28;20229;-82
2023/12/08 02:51:35;;;;;;;10.57;10.27;;;-0.30;99.90;;;;;;5106532;28;20236;-81
2023/12/08 02:54:02;;;;;;;10.53;10.23;;;-0.20;99.90;;;;;;5108682;28;20237;-82
2023/12/08 02:56:30;;;;;;;10.40;10.10;;;-0.30;99.90;;;;;;5107207;28;20226;-82
2023/12/08 02:58:59;;;;;;;10.50;10.20;;;-0.30;99.90;;;;;;5106039;28;20232;-81
2023/12/08 03:01:26;;;;;;;10.60;10.30;;;-0.20;99.90;;;;;;5103765;28;20244;-82
2023/12/08 03:03:53;;;;;;;10.57;10.27;;;-0.20;99.90;;;;;;5105443;28;20233;-82
2023/12/08 03:06:21;;;;;;;10.50;10.20;;;-0.20;99.90;;;;;;5105295;28;20224;-82
2023/12/08 03:08:48;;;;;;;10.53;10.23;;;-0.30;99.90;;;;;;5104771;28;20320;-82
2023/12/08 03:11:15;;;;;;;10.43;10.13;;;-0.30;99.90;;;;;;5104545;28;20245;-82
2023/12/08 03:13:42;;;;;;;10.33;10.03;;;-0.30;99.90;;;;;;5105229;28;20229;-82
2023/12/08 03:16:11;;;;;;;10.27;9.97;;;-0.30;99.90;;;;;;5104330;28;20205;-82
2023/12/08 03:18:38;;;;;;;10.40;10.10;;;-0.20;99.90;;;;;;5104556;28;20236;-82
2023/12/08 03:21:06;;;;;;;10.20;9.90;;;-0.20;99.90;;;;;;5104427;28;20249;-81
2023/12/08 03:23:34;;;;;;;10.40;10.10;;;-0.20;99.90;;;;;;5105316;28;20235;-80
2023/12/08 03:26:02;;;;;;;10.37;10.07;;;-0.10;99.90;;;;;;5108535;28;20228;-82
2023/12/08 03:28:29;;;;;;;10.60;10.30;;;-0.10;99.90;;;;;;5107512;28;20281;-82
2023/12/08 03:30:56;;;;;;;10.33;10.03;;;-0.10;99.90;;;;;;5105872;28;20247;-82
2023/12/08 03:33:25;;;;;;;10.53;10.23;;;-0.10;99.90;;;;;;5105038;28;21074;-81
2023/12/08 03:35:51;;;;;;;10.60;10.30;;;-0.10;99.90;;;;;;5104440;28;20226;-80
2023/12/08 03:38:18;;;;;;;9.90;9.60;;;-0.10;99.90;;;;;;5106736;28;20236;-80
2023/12/08 03:40:46;;;;;;;10.20;9.90;;;-0.10;99.90;;;;;;5111070;28;20234;-80
2023/12/08 03:43:13;;;;;;;10.13;9.83;;;-0.10;99.90;;;;;;5103787;28;20233;-81
2023/12/08 03:45:40;;;;;;;10.37;10.07;;;-0.10;99.90;;;;;;5103974;28;20229;-81
2023/12/08 03:48:07;;;;;;;10.30;10.00;;;-0.20;99.90;;;;;;5104305;28;20225;-81
2023/12/08 03:50:36;;;;;;;10.20;9.90;;;-0.20;99.90;;;;;;5104369;28;20340;-81
2023/12/08 03:53:04;;;;;;;10.33;10.03;;;-0.20;99.90;;;;;;5104901;28;20236;-81
2023/12/08 03:55:31;;;;;;;10.43;10.13;;;-0.10;99.90;;;;;;5104370;28;20229;-81
2023/12/08 03:57:58;;;;;;;10.30;10.00;;;-0.10;99.90;;;;;;5104098;28;20271;-81
2023/12/08 04:00:25;;;;;;;10.40;10.10;;;-0.10;99.90;;;;;;5103891;28;20240;-81
2023/12/08 04:02:53;;;;;;;10.37;10.07;;;-0.10;99.90;;;;;;5104345;28;20232;-81
2023/12/08 04:05:20;;;;;;;10.03;9.73;;;-0.20;99.90;;;;;;5103438;28;20209;-81
2023/12/08 04:07:49;;;;;;;10.30;10.00;;;-0.20;99.90;;;;;;5103455;28;20236;-81
2023/12/08 04:10:16;;;;;;;10.23;9.93;;;-0.20;99.90;;;;;;5104626;28;20232;-81
2023/12/08 04:12:43;;;;;;;10.50;10.20;;;-0.20;99.90;;;;;;5104900;28;20233;-82
2023/12/08 04:15:11;;;;;;;10.50;10.20;;;-0.20;99.90;;;;;;5104938;28;20220;-81
2023/12/08 04:17:39;;;;;;;10.27;9.97;;;-0.20;99.90;;;;;;5104479;28;20243;-82
2023/12/08 04:20:07;;;;;;;10.30;10.00;;;-0.10;99.90;;;;;;5104305;28;20266;-81
2023/12/08 04:22:34;;;;;;;10.20;9.90;;;-0.10;99.90;;;;;;5104096;28;20229;-81
2023/12/08 04:25:03;;;;;;;9.87;9.57;;;-0.20;99.90;;;;;;5103566;28;20303;-81
2023/12/08 04:27:31;;;;;;;9.83;9.53;;;-0.10;99.90;;;;;;5103932;28;20234;-81
2023/12/08 04:29:58;;;;;;;10.13;9.83;;;-0.10;99.90;;;;;;5106446;28;20244;-82
2023/12/08 04:32:25;;;;;;;10.00;9.70;;;0.00;99.90;;;;;;5104820;28;20269;-82
2023/12/08 04:34:53;;;;;;;9.90;9.60;;;0.00;99.90;;;;;;5104293;28;20232;-82
2023/12/08 04:37:20;;;;;;;9.70;9.40;;;0.00;99.90;;;;;;5103515;28;20237;-82
2023/12/08 04:39:48;;;;;;;10.00;9.70;;;0.10;99.90;;;;;;5103673;28;20245;-82
2023/12/08 04:42:17;;;;;;;9.97;9.67;;;0.00;99.90;;;;;;5103670;28;20259;-82
2023/12/08 04:44:45;;;;;;;10.00;9.70;;;0.10;99.90;;;;;;5105746;28;20217;-82
2023/12/08 04:47:12;;;;;;;10.00;9.70;;;0.00;99.90;;;;;;5111156;28;20233;-82
2023/12/08 04:49:40;;;;;;;10.10;9.80;;;0.00;99.90;;;;;;5111498;28;20225;-82
2023/12/08 04:52:07;;;;;;;9.77;9.47;;;0.00;99.90;;;;;;5109618;28;20275;-82
2023/12/08 04:54:35;;;;;;;9.63;9.33;;;-0.10;99.90;;;;;;5104150;28;20217;-82
2023/12/08 04:57:02;;;;;;;9.70;9.40;;;-0.10;99.90;;;;;;5102530;28;20235;-83
2023/12/08 04:59:31;;;;;;;9.63;9.33;;;-0.20;99.90;;;;;;5103158;28;20228;-82
2023/12/08 05:01:58;;;;;;;9.97;9.67;;;-0.20;99.90;;;;;;5103262;28;20248;-82
2023/12/08 05:04:25;;;;;;;9.73;9.43;;;-0.20;99.90;;;;;;5102627;28;20220;-82
2023/12/08 05:06:52;;;;;;;9.77;9.47;;;-0.20;99.90;;;;;;5102320;28;20233;-82
2023/12/08 05:09:20;;;;;;;9.80;9.50;;;-0.20;99.90;;;;;;5103778;28;20240;-82
2023/12/08 05:11:47;;;;;;;9.80;9.50;;;-0.10;99.90;;;;;;5102324;28;20306;-82
2023/12/08 05:14:14;;;;;;;9.63;9.33;;;-0.10;99.90;;;;;;5107283;28;20240;-83
2023/12/08 05:16:43;;;;;;;9.90;9.60;;;-0.10;99.90;;;;;;5104338;28;20229;-82
2023/12/08 05:19:10;;;;;;;9.90;9.60;;;-0.20;99.90;;;;;;5104143;28;20229;-80
2023/12/08 05:21:38;;;;;;;10.00;9.70;;;-0.10;99.90;;;;;;5104595;28;20233;-82
2023/12/08 05:24:06;;;;;;;10.00;9.70;;;-0.10;99.90;;;;;;5110878;28;20672;-81
2023/12/08 05:26:33;;;;;;;10.30;10.00;;;-0.10;99.90;;;;;;5110455;28;20252;-80
2023/12/08 05:29:01;;;;;;;10.20;9.90;;;0.00;99.90;;;;;;5105428;28;20239;-81
2023/12/08 05:31:28;;;;;;;9.90;9.60;;;-0.10;99.90;;;;;;5101394;28;20284;-81
2023/12/08 05:33:57;;;;;;;10.13;9.83;;;0.00;99.90;;;;;;5102115;28;20232;-81
2023/12/08 05:36:24;;;;;;;10.10;9.80;;;0.00;99.90;;;;;;5101979;28;20236;-81
2023/12/08 05:38:51;;;;;;;9.80;9.50;;;0.00;99.90;;;;;;5105845;28;21082;-81
2023/12/08 05:41:18;;;;;;;10.10;9.80;;;0.00;99.90;;;;;;5104327;28;20297;-82
2023/12/08 05:43:47;;;;;;;9.93;9.63;;;0.00;99.90;;;;;;5103852;28;20233;-80
2023/12/08 05:46:14;;;;;;;10.10;9.80;;;0.00;99.90;;;;;;5104002;28;20289;-81
2023/12/08 05:48:42;;;;;;;10.30;10.00;;;0.00;99.90;;;;;;5105214;28;20253;-81
2023/12/08 05:51:10;;;;;;;10.50;10.20;;;0.00;99.90;;;;;;5103320;28;20327;-82
2023/12/08 05:53:38;;;;;;;10.30;10.00;;;0.00;99.90;;;;;;5102795;28;20221;-82
2023/12/08 05:56:06;;;;;;;10.13;9.83;;;0.00;99.90;;;;;;5103907;28;20267;-82
2023/12/08 05:58:33;;;;;;;10.30;10.00;;;0.00;99.90;;;;;;5103401;28;20226;-82
2023/12/08 06:01:03;;;;;;;10.20;9.90;;;0.00;99.90;;;;;;5104441;28;20259;-82
2023/12/08 06:03:30;;;;;;;10.10;9.80;;;0.00;99.90;;;;;;5103575;28;20229;-82
2023/12/08 06:05:57;;;;;;;10.17;9.87;;;0.00;99.90;;;;;;5104184;28;20240;-82
2023/12/08 06:08:26;;;;;;;10.20;9.90;;;0.00;99.90;;;;;;5103718;28;20233;-83
2023/12/08 06:10:55;;;;;;;10.23;9.93;;;0.00;99.90;;;;;;5103395;28;20229;-82
2023/12/08 06:13:23;;;;;;;10.17;9.87;;;0.00;99.90;;;;;;5102844;28;20243;-82
2023/12/08 06:15:50;;;;;;;10.30;10.00;;;-0.10;99.90;;;;;;5104115;28;20333;-81
2023/12/08 06:18:18;;;;;;;9.97;9.67;;;-0.10;99.90;;;;;;5105110;28;21095;-81
2023/12/08 06:20:45;;;;;;;10.07;9.77;;;-0.10;99.90;;;;;;5104332;28;20243;-82
2023/12/08 06:23:12;;;;;;;10.00;9.70;;;0.00;99.90;;;;;;5107211;28;20299;-82
2023/12/08 06:25:41;;;;;;;10.17;9.87;;;0.00;99.90;;;;;;5107154;28;20255;-82
2023/12/08 06:28:08;;;;;;;10.07;9.77;;;0.00;99.90;;;;;;5110408;28;20240;-82
2023/12/08 06:30:36;;;;;;;10.13;9.83;;;0.00;99.90;;;;;;5109471;28;20275;-82
2023/12/08 06:33:03;;;;;;;10.30;10.00;;;0.00;99.90;;;;;;5106872;28;20236;-82
2023/12/08 06:35:30;;;;;;;10.07;9.77;;;0.00;99.90;;;;;;5108140;28;20229;-82
2023/12/08 06:37:58;;;;;;;10.20;9.90;;;0.00;99.90;;;;;;5108855;28;20290;-82
2023/12/08 06:40:25;;;;;;;9.90;9.60;;;0.00;99.90;;;;;;5108836;28;20236;-81
2023/12/08 06:42:54;;;;;;;10.53;10.23;;;0.00;99.90;;;;;;5108990;28;20251;-81
2023/12/08 06:45:24;;;;;;;10.70;10.40;;;-0.10;99.90;;;;;;5108825;28;20232;-81
2023/12/08 06:47:52;;;;;;;10.53;10.23;;;-0.10;99.90;;;;;;5108129;28;20221;-81
2023/12/08 06:50:19;;;;;;;10.40;10.10;;;-0.10;99.90;;;;;;5110355;28;20221;-80
2023/12/08 06:52:50;;;;;;;10.00;9.70;;;-0.10;99.90;;;;;;5108042;28;20240;-81
2023/12/08 06:55:18;;;;;;;10.07;9.77;;;-0.10;99.90;;;;;;5108384;28;21011;-82
2023/12/08 06:57:45;;;;;;;10.10;9.80;;;0.00;99.90;;;;;;5107597;28;20291;-81
2023/12/08 07:00:16;;;;;;;10.13;9.83;;;0.00;99.90;;;;;;5106811;28;20218;-82
2023/12/08 07:02:44;;;;;;;9.67;9.37;;;0.00;99.90;;;;;;5107561;28;20316;-82
2023/12/08 07:05:12;;;;;;;10.07;9.77;;;0.00;99.90;;;;;;5107410;28;20233;-82
2023/12/08 07:07:40;;;;;;;10.13;9.83;;;0.10;99.90;;;;;;5107968;28;20233;-82
2023/12/08 07:10:08;;;;;;;9.80;9.50;;;0.00;99.90;;;;;;5107141;28;20250;-82
2023/12/08 07:12:36;;;;;;;10.20;9.90;;;0.00;99.90;;;;;;5106710;28;20232;-82
2023/12/08 07:15:04;;;;;;;9.77;9.47;;;0.10;99.90;;;;;;5106262;28;20228;-82
2023/12/08 07:17:33;;;;;;;9.97;9.67;;;0.10;99.90;;;;;;5107769;28;20237;-81
2023/12/08 07:20:00;;;;;;;9.87;9.57;;;0.10;99.90;;;;;;5107078;28;20217;-82
2023/12/08 07:22:29;;;;;;;10.23;9.93;;;0.00;99.90;;;;;;5108973;28;20225;-82
2023/12/08 07:24:57;;;;;;;9.90;9.60;;;0.10;99.90;;;;;;5108792;28;20291;-82
2023/12/08 07:27:24;;;;;;;10.40;10.10;;;0.10;99.90;;;;;;5107650;28;20232;-81
2023/12/08 07:29:51;;;;;;;10.37;10.07;;;0.10;99.90;;;;;;5107891;28;20296;-81
2023/12/08 07:32:19;;;;;;;10.73;10.43;;;0.10;99.90;;;;;;5106532;28;20419;-82
2023/12/08 07:34:48;;;;;;;10.20;9.90;;;0.10;99.90;;;;;;5105618;28;20233;-82
2023/12/08 07:37:16;;;;;;;9.97;9.67;;;0.10;99.90;;;;;;5109772;28;20240;-81
2023/12/08 07:39:44;;;;;;;10.07;9.77;;;0.20;99.90;;;;;;5105502;28;20245;-82
2023/12/08 07:42:13;;;;;;;10.10;9.80;;;0.20;99.90;;;;;;5105393;28;20344;-82
2023/12/08 07:44:41;;;;;;;9.80;9.50;;;0.20;99.90;;;;;;5112060;28;20220;-83
2023/12/08 07:47:09;;;;;;;10.33;10.03;;;0.30;99.90;;;;;;5107936;28;20233;-81
2023/12/08 07:49:36;;;;;;;10.10;9.80;;;0.30;99.90;;;;;;5106633;28;20217;-82
2023/12/08 07:52:06;;;;;;;10.57;10.27;;;0.30;99.90;;;;;;5105967;28;20221;-81
2023/12/08 07:54:34;;;;;;;10.13;9.83;;;0.30;99.90;;;;;;5104610;28;20221;-81
2023/12/08 07:57:01;;;;;;;10.53;10.23;;;0.40;99.90;;;;;;5105207;28;20338;-82
2023/12/08 07:59:29;;;;;;;10.57;10.27;;;0.40;99.90;;;;;;5104877;28;20230;-82
2023/12/08 08:01:56;;;;;;;10.80;10.50;;;0.40;99.90;;;;;;5104632;28;20233;-81
2023/12/08 08:04:23;;;;;;;10.83;10.53;;;0.40;99.90;;;;;;5105125;28;20239;-81
2023/12/08 08:06:51;;;;;;;10.93;10.63;;;0.40;99.90;;;;;;5103257;28;20247;-82
2023/12/08 08:09:20;;;;;;;10.77;10.47;;;0.40;99.90;;;;;;5103770;28;20316;-81
2023/12/08 08:11:48;;;;;;;10.70;10.40;;;0.40;99.90;;;;;;5103587;28;20238;-81
2023/12/08 08:14:15;;;;;;;10.17;9.87;;;0.40;99.90;;;;;;5103998;28;20237;-82
2023/12/08 08:16:42;;;;;;;10.70;10.40;;;0.40;99.90;;;;;;5106111;28;20245;-81
2023/12/08 08:19:10;;;;;;;10.77;10.47;;;0.40;99.90;;;;;;5104770;28;20229;-81
2023/12/08 08:21:37;;;;;;;10.80;10.50;;;0.40;99.90;;;;;;5104896;28;20244;-82
2023/12/08 08:24:05;;;;;;;10.57;10.27;;;0.40;99.90;;;;;;5105163;28;20263;-82
2023/12/08 08:26:34;;;;;;;10.13;9.83;;;0.40;99.90;;;;;;5108783;28;20304;-82
2023/12/08 08:29:12;;;;;;;10.60;10.30;;;0.40;99.90;;;;;;5113099;28;20232;-81
2023/12/08 08:31:41;;;;;;;10.80;10.50;;;0.40;99.90;;;;;;5117278;28;20272;-81
2023/12/08 08:34:09;;;;;;;10.53;10.23;;;0.40;99.90;;;;;;5120131;27;20217;-82
2023/12/08 08:36:36;;;;;;;10.40;10.10;;;0.40;99.90;;;;;;5120507;27;20221;-83
2023/12/08 08:39:04;;;;;;;10.50;10.20;;;0.40;99.90;;;;;;5120367;27;20221;-80
2023/12/08 08:41:33;;;;;;;10.57;10.27;;;0.30;99.90;;;;;;5120125;27;20213;-81
2023/12/08 08:44:00;;;;;;;10.60;10.30;;;0.40;99.90;;;;;;5120128;27;20214;-79
2023/12/08 08:46:28;;;;;;;10.50;10.20;;;0.30;99.90;;;;;;5127762;27;20235;-81
2023/12/08 08:49:05;;;;;;;10.23;9.93;;;0.40;99.90;;;;;;5125872;27;20217;-81
2023/12/08 08:51:32;;;;;;;10.67;10.37;;;0.40;99.90;;;;;;5119521;27;20205;-81
2023/12/08 08:54:00;;;;;;;10.50;10.20;;;0.40;99.90;;;;;;5119569;27;20217;-80
2023/12/08 08:56:28;;;;;;;10.27;9.97;;;0.40;99.90;;;;;;5120108;27;20221;-81
2023/12/08 08:58:56;;;;;;;10.67;10.37;;;0.40;99.90;;;;;;5120484;27;20216;-80
2023/12/08 09:01:25;;;;;;;10.27;9.97;;;0.40;99.90;;;;;;5120389;27;20245;-81
2023/12/08 09:03:55;;;;;;;10.80;10.50;;;0.40;99.90;;;;;;5122856;27;20205;-81
2023/12/08 09:06:22;;;;;;;10.57;10.27;;;0.40;99.90;;;;;;5130821;27;20242;-81
2023/12/08 09:08:49;;;;;;;10.50;10.20;;;0.40;99.90;;;;;;5130454;27;20263;-81
2023/12/08 09:11:19;;;;;;;10.70;10.40;;;0.40;99.90;;;;;;5120639;27;20210;-82
2023/12/08 09:13:47;;;;;;;10.53;10.23;;;0.40;99.90;;;;;;5120452;27;20209;-81
2023/12/08 09:16:18;;;;;;;10.60;10.30;;;0.40;99.90;;;;;;5120624;27;20221;-81
2023/12/08 09:18:45;;;;;;;10.60;10.30;;;0.40;99.90;;;;;;5120589;27;20217;-81
2023/12/08 09:21:12;;;;;;;10.47;10.17;;;0.50;99.90;;;;;;5120335;27;20229;-82
2023/12/08 09:23:40;;;;;;;10.50;10.20;;;0.50;99.90;;;;;;5117172;27;20225;-82
2023/12/08 09:26:07;;;;;;;10.40;10.10;;;0.40;99.90;;;;;;5120910;27;20213;-81
2023/12/08 09:28:34;;;;;;;10.60;10.30;;;0.50;99.90;;;;;;5115582;27;20252;-80
2023/12/08 09:31:07;;;;;;;10.60;10.30;;;0.50;99.90;;;;;;5118272;27;20232;-82
2023/12/08 09:33:36;;;;;;;10.77;10.47;;;0.50;99.90;;;;;;5119663;27;20259;-83
2023/12/08 09:36:04;;;;;;;10.63;10.33;;;0.60;99.90;;;;;;5114765;27;20228;-83
2023/12/08 09:38:34;;;;;;;10.77;10.47;;;0.60;99.90;;;;;;5111985;28;20237;-82
2023/12/08 09:41:04;;;;;;;10.53;10.23;;;0.60;99.90;;;;;;5104945;28;20257;-82
2023/12/08 09:43:40;;;;;;;10.63;10.33;;;0.60;99.90;;;;;;5105753;28;20229;-83
2023/12/08 09:46:11;;;;;;;10.70;10.40;;;0.70;99.90;;;;;;5103739;28;20235;-83
2023/12/08 09:48:44;;;;;;;10.53;10.23;;;0.70;99.90;;;;;;5103812;28;20232;-82
2023/12/08 09:51:12;;;;;;;10.80;10.50;;;0.80;99.90;;;;;;5103332;28;20252;-82
2023/12/08 09:53:41;;;;;;;10.70;10.40;;;0.80;99.90;;;;;;5103988;28;20245;-83
2023/12/08 09:56:09;;;;;;;10.57;10.27;;;0.80;99.90;;;;;;5103460;28;20264;-83
2023/12/08 09:58:39;;;;;;;10.60;10.30;;;0.80;99.90;;;;;;5106008;28;20222;-83
2023/12/08 10:01:18;;;;;;;10.60;10.30;;;0.80;99.90;;;;;;5111056;27;20233;-82
2023/12/08 10:03:47;;;;;;;10.67;10.37;;;0.80;99.90;;;;;;5105128;28;21163;-82
2023/12/08 10:06:14;;;;;;;10.57;10.27;;;0.80;99.90;;;;;;5107008;28;20314;-83
2023/12/08 10:08:42;;;;;;;10.47;10.17;;;0.80;99.90;;;;;;5105768;28;20218;-84
2023/12/08 10:11:10;;;;;;;10.90;10.60;;;0.80;99.90;;;;;;5108693;28;20242;-83
2023/12/08 10:13:37;;;;;;;10.70;10.40;;;0.80;99.90;;;;;;5107029;28;20229;-83
2023/12/08 10:16:08;;;;;;;10.63;10.33;;;0.80;99.90;;;;;;5109676;28;20240;-82
2023/12/08 10:18:36;;;;;;;10.67;10.37;;;0.90;99.90;;;;;;5106589;28;20226;-82
2023/12/08 10:21:19;;;;;;;10.23;9.93;;;0.90;99.90;;;;;;5106203;28;20281;-82
2023/12/08 10:23:50;;;;;;;10.83;10.53;;;0.90;99.90;;;;;;5106469;28;20268;-83
2023/12/08 10:26:19;;;;;;;10.60;10.30;;;1.00;99.90;;;;;;5106929;28;20336;-82
2023/12/08 10:28:47;;;;;;;10.70;10.40;;;1.00;99.90;;;;;;5106234;28;20226;-82
2023/12/08 10:31:15;;;;;;;10.30;10.00;;;1.00;99.90;;;;;;5106995;28;20236;-82
2023/12/08 10:33:42;;;;;;;10.67;10.37;;;1.00;99.90;;;;;;5106459;28;20275;-81
2023/12/08 10:36:10;;;;;;;10.70;10.40;;;1.10;99.90;;;;;;5106173;28;20248;-82
2023/12/08 10:38:40;;;;;;;10.47;10.17;;;1.10;99.90;;;;;;5106290;28;20300;-83
2023/12/08 10:41:11;;;;;;;10.37;10.07;;;1.10;99.90;;;;;;5107161;28;20221;-82
2023/12/08 10:43:39;;;;;;;10.53;10.23;;;1.00;99.90;;;;;;5106121;28;20240;-83
2023/12/08 10:46:09;;;;;;;10.50;10.20;;;1.00;99.90;;;;;;5106267;28;20226;-82
2023/12/08 10:48:37;;;;;;;10.80;10.50;;;1.10;99.90;;;;;;5104647;28;20237;-82
2023/12/08 10:51:13;;;;;;;10.33;10.03;;;1.10;99.90;;;;;;5105492;28;20316;-83
2023/12/08 10:53:42;;;;;;;9.97;9.67;;;1.10;99.90;;;;;;5118254;28;20229;-82
2023/12/08 10:56:15;;;;;;;10.50;10.20;;;1.10;99.90;;;;;;5120413;28;20298;-82
2023/12/08 10:58:46;;;;;;;10.30;10.00;;;1.10;99.90;;;;;;5115328;27;20243;-82
2023/12/08 11:01:15;;;;;;;10.37;10.07;;;1.20;99.90;;;;;;5112760;28;20285;-82
2023/12/08 11:03:48;;;;;;;10.47;10.17;;;1.10;99.90;;;;;;5115464;28;20244;-82
2023/12/08 11:06:23;;;;;;;9.77;9.47;;;1.10;99.90;;;;;;5117071;28;20256;-82
2023/12/08 11:08:55;;;;;;;10.23;9.93;;;1.00;99.90;;;;;;5112150;27;20247;-82
2023/12/08 11:11:26;;;;;;;10.30;10.00;;;1.10;99.90;;;;;;5114793;28;20240;-81
2023/12/08 11:14:03;;;;;;;10.43;10.13;;;1.00;99.90;;;;;;5117802;28;20233;-79
2023/12/08 11:16:36;;;;;;;10.03;9.73;;;1.00;99.90;;;;;;5109261;27;20260;-78
2023/12/08 11:19:05;;;;;;;10.80;10.50;;;1.00;99.90;;;;;;5103454;28;20311;-79
2023/12/08 11:21:33;;;;;;;10.60;10.30;;;1.00;99.90;;;;;;5105211;28;20236;-81
2023/12/08 11:24:06;;;;;;;10.03;9.73;;;1.00;99.90;;;;;;5106077;28;20225;-82
2023/12/08 11:26:41;;;;;;;10.60;10.30;;;1.00;99.90;;;;;;5106145;28;20228;-82
2023/12/08 11:29:22;;;;;;;10.57;10.27;;;1.00;99.90;;;;;;5105445;28;20271;-82
2023/12/08 11:31:59;;;;;;;10.13;9.83;;;1.00;99.90;;;;;;5106260;28;20232;-81
2023/12/08 11:34:35;;;;;;;10.53;10.23;;;1.00;99.90;;;;;;5110098;28;20244;-81
2023/12/08 11:37:03;;;;;;;10.20;9.90;;;0.90;99.90;;;;;;5106471;28;20235;-82
2023/12/08 11:39:41;;;;;;;10.40;10.10;;;0.90;99.90;;;;;;5106371;28;20332;-83
2023/12/08 11:42:11;;;;;;;10.17;9.87;;;0.90;99.90;;;;;;5105663;28;20229;-81
2023/12/08 11:44:42;;;;;;;10.10;9.80;;;0.90;99.90;;;;;;5106213;28;20233;-82
2023/12/08 11:47:14;;;;;;;10.60;10.30;;;0.90;99.90;;;;;;5106810;28;20226;-82
2023/12/08 11:49:44;;;;;;;10.47;10.17;;;0.90;99.90;;;;;;5105000;28;20229;-81
2023/12/08 11:52:28;;;;;;;10.43;10.13;;;0.90;99.90;;;;;;5105832;28;20217;-81
2023/12/08 11:55:09;;;;;;;10.37;10.07;;;0.90;99.90;;;;;;5105827;28;20586;-82
2023/12/08 11:57:41;;;;;;;10.57;10.27;;;0.90;99.90;;;;;;5108873;28;20229;-81
2023/12/08 12:00:11;;;;;;;10.80;10.50;;;0.80;99.90;;;;;;5116658;27;20262;-81
2023/12/08 12:02:44;;;;;;;10.80;10.50;;;0.80;99.90;;;;;;5110378;28;20283;-82
2023/12/08 12:05:17;;;;;;;11.07;10.77;;;0.90;99.90;;;;;;5105729;28;20240;-81
2023/12/08 12:07:46;;;;;;;11.10;10.80;;;0.90;99.90;;;;;;5106164;28;20240;-81
2023/12/08 12:10:22;;;;;;;10.97;10.67;;;0.90;99.90;;;;;;5127423;27;20235;-82
2023/12/08 12:12:54;;;;;;;10.60;10.30;;;1.00;99.90;;;;;;5133068;27;20240;-83
2023/12/08 12:15:26;;;;;;;11.00;10.70;;;1.00;99.90;;;;;;5127094;27;20227;-84
2023/12/08 12:17:56;;;;;;;10.60;10.30;;;1.00;99.90;;;;;;5142237;27;20227;-84
2023/12/08 12:20:28;;;;;;;10.90;10.60;;;1.00;99.90;;;;;;5147147;27;20228;-86
2023/12/08 12:22:58;;;;;;;10.20;9.90;;;1.00;99.90;;;;;;5158899;27;20532;-83
2023/12/08 12:25:27;;;;;;;10.50;10.20;;;1.10;99.90;;;;;;5148293;27;20258;-84
2023/12/08 12:27:58;;;;;;;10.60;10.30;;;1.10;99.90;;;;;;5151926;27;20220;-83
2023/12/08 12:30:29;;;;;;;10.77;10.47;;;1.10;99.90;;;;;;5150941;27;20242;-85
2023/12/08 12:33:04;;;;;;;10.30;10.00;;;1.10;99.90;;;;;;5148746;27;20212;-83
2023/12/08 12:35:32;;;;;;;10.03;9.73;;;1.10;99.90;;;;;;5152995;27;20250;-85
2023/12/08 12:38:05;;;;;;;10.70;10.40;;;1.10;99.90;;;;;;5114884;27;20241;-83
2023/12/08 12:40:39;;;;;;;10.70;10.40;;;1.10;99.90;;;;;;5107911;28;20225;-84
2023/12/08 12:43:07;;;;;;;10.63;10.33;;;1.20;99.90;;;;;;5106281;28;20218;-83